createdAt,value
2018-11-07T00:01:01.619Z,95732.83
2018-11-07T00:03:30.118Z,95727.84
2018-11-07T00:05:58.602Z,95729.55
2018-11-07T00:08:27.140Z,95747.30
2018-11-07T00:10:55.938Z,95733.88
2018-11-07T00:13:24.428Z,95739.06
2018-11-07T00:15:52.942Z,95743.27
2018-11-07T00:18:21.433Z,95736.27
2018-11-07T00:20:49.954Z,95729.38
2018-11-07T00:23:18.478Z,95733.75
2018-11-07T00:25:46.964Z,95735.48
2018-11-07T00:28:15.450Z,95737.72
2018-11-07T00:30:43.946Z,95743.75
2018-11-07T00:33:12.432Z,95735.77
2018-11-07T00:35:40.959Z,95746.88
2018-11-07T00:38:09.750Z,95743.77
2018-11-07T00:40:38.285Z,95744.14
2018-11-07T00:45:59.763Z,95746.00
2018-11-07T00:48:28.296Z,95749.02
2018-11-07T00:50:56.800Z,95747.28
2018-11-07T00:53:25.322Z,95748.89
2018-11-07T00:55:53.800Z,95747.87
2018-11-07T00:58:22.271Z,95742.75
2018-11-07T01:00:50.759Z,95743.05
2018-11-07T01:03:19.258Z,95748.86
2018-11-07T01:05:47.779Z,95744.58
2018-11-07T01:08:16.288Z,95741.44
2018-11-07T01:10:44.790Z,95736.02
2018-11-07T01:13:14.134Z,95742.97
2018-11-07T01:15:42.667Z,95740.09
2018-11-07T01:18:11.325Z,95746.22
2018-11-07T01:20:39.823Z,95740.53
2018-11-07T01:23:08.339Z,95732.22
2018-11-07T01:25:36.825Z,95736.31
2018-11-07T01:28:05.647Z,95732.35
2018-11-07T01:30:34.099Z,95725.03
2018-11-07T01:33:02.615Z,95720.65
2018-11-07T01:35:31.466Z,95725.38
2018-11-07T01:37:59.964Z,95731.22
2018-11-07T01:40:28.463Z,95729.33
2018-11-07T01:42:56.979Z,95727.13
2018-11-07T01:45:25.463Z,95721.11
2018-11-07T01:47:54.408Z,95720.19
2018-11-07T01:50:22.912Z,95718.91
2018-11-07T01:52:51.415Z,95719.27
2018-11-07T01:55:19.954Z,95716.50
2018-11-07T01:57:48.462Z,95710.37
2018-11-07T02:00:16.957Z,95713.01
2018-11-07T02:02:45.469Z,95712.36
2018-11-07T02:05:14.422Z,95713.27
2018-11-07T02:07:43.430Z,95709.23
2018-11-07T02:10:12.190Z,95707.94
2018-11-07T02:12:41.559Z,95712.13
2018-11-07T02:15:10.758Z,95710.27
2018-11-07T02:17:39.305Z,95717.62
2018-11-07T02:20:09.170Z,95708.56
2018-11-07T02:22:37.703Z,95720.78
2018-11-07T02:25:06.601Z,95714.19
2018-11-07T02:27:35.109Z,95711.63
2018-11-07T02:30:03.715Z,95707.91
2018-11-07T02:32:32.207Z,95712.20
2018-11-07T02:35:00.718Z,95710.47
2018-11-07T02:37:29.218Z,95712.66
2018-11-07T02:39:57.737Z,95718.46
2018-11-07T02:42:26.237Z,95713.11
2018-11-07T02:44:54.737Z,95714.30
2018-11-07T02:47:23.227Z,95720.45
2018-11-07T02:49:51.748Z,95728.38
2018-11-07T02:52:20.322Z,95718.59
2018-11-07T02:54:48.830Z,95714.43
2018-11-07T02:57:17.551Z,95718.03
2018-11-07T02:59:46.052Z,95720.02
2018-11-07T03:02:15.393Z,95721.30
2018-11-07T03:04:43.922Z,95723.19
2018-11-07T03:07:12.398Z,95724.34
2018-11-07T03:09:40.879Z,95722.23
2018-11-07T03:12:09.379Z,95729.79
2018-11-07T03:14:37.903Z,95719.69
2018-11-07T03:17:06.582Z,95726.08
2018-11-07T03:19:35.092Z,95723.86
2018-11-07T03:22:03.623Z,95728.52
2018-11-07T03:24:32.160Z,95724.11
2018-11-07T03:27:00.662Z,95737.92
2018-11-07T03:29:29.558Z,95733.05
2018-11-07T03:31:58.150Z,95735.36
2018-11-07T03:34:26.646Z,95731.90
2018-11-07T03:37:04.967Z,95735.24
2018-11-07T03:39:38.853Z,95737.25
2018-11-07T03:42:07.338Z,95736.55
2018-11-07T03:44:35.951Z,95735.03
2018-11-07T03:47:16.474Z,95740.75
2018-11-07T03:49:55.962Z,95734.48
2018-11-07T03:52:36.291Z,95735.05
2018-11-07T03:55:15.946Z,95740.28
2018-11-07T03:57:54.951Z,95730.86
2018-11-07T04:00:25.043Z,95740.37
2018-11-07T04:03:03.736Z,95742.59
2018-11-07T04:05:32.266Z,95740.40
2018-11-07T04:08:00.765Z,95737.84
2018-11-07T04:10:29.279Z,95743.17
2018-11-07T04:13:08.170Z,95739.24
2018-11-07T04:15:36.693Z,95738.08
2018-11-07T04:18:05.291Z,95735.05
2018-11-07T04:20:34.130Z,95737.48
2018-11-07T04:23:02.944Z,95738.66
2018-11-07T04:25:45.777Z,95736.20
2018-11-07T04:28:24.882Z,95731.00
2018-11-07T04:30:53.407Z,95734.83
2018-11-07T04:33:21.911Z,95742.03
2018-11-07T04:36:03.712Z,95737.27
2018-11-07T04:38:47.687Z,95738.08
2018-11-07T04:41:26.376Z,95748.16
2018-11-07T04:44:05.819Z,95745.61
2018-11-07T04:46:37.139Z,95747.25
2018-11-07T04:49:16.129Z,95747.59
2018-11-07T04:51:44.635Z,95756.25
2018-11-07T04:54:13.131Z,95755.45
2018-11-07T04:56:52.601Z,95757.88
2018-11-07T04:59:21.128Z,95758.83
2018-11-07T05:01:50.493Z,95759.17
2018-11-07T05:04:18.980Z,95764.86
2018-11-07T05:06:57.372Z,95757.21
2018-11-07T05:09:38.884Z,95757.55
2018-11-07T05:12:17.318Z,95762.08
2018-11-07T05:14:50.216Z,95756.37
2018-11-07T05:17:25.099Z,95765.41
2018-11-07T05:19:53.605Z,95758.12
2018-11-07T05:22:22.083Z,95764.62
2018-11-07T05:24:50.646Z,95774.34
2018-11-07T05:27:19.158Z,95774.12
2018-11-07T05:29:47.664Z,95784.34
2018-11-07T05:32:16.165Z,95779.81
2018-11-07T05:34:44.674Z,95786.53
2018-11-07T05:37:13.191Z,95778.28
2018-11-07T05:39:41.679Z,95782.00
2018-11-07T05:42:10.178Z,95785.83
2018-11-07T05:44:38.659Z,95784.66
2018-11-07T05:47:07.263Z,95783.98
2018-11-07T05:49:35.747Z,95791.06
2018-11-07T05:52:04.278Z,95788.28
2018-11-07T05:54:32.886Z,95789.23
2018-11-07T05:57:01.450Z,95793.39
2018-11-07T05:59:29.979Z,95799.08
2018-11-07T06:01:58.513Z,95790.94
2018-11-07T06:04:27.054Z,95795.58
2018-11-07T06:06:55.564Z,95802.42
2018-11-07T06:09:24.078Z,95805.77
2018-11-07T06:11:52.604Z,95805.34
2018-11-07T06:17:13.526Z,95816.12
2018-11-07T06:19:42.012Z,95812.77
2018-11-07T06:22:10.498Z,95814.52
2018-11-07T06:24:39.043Z,95816.14
2018-11-07T06:27:07.719Z,95812.78
2018-11-07T06:29:36.243Z,95816.25
2018-11-07T06:32:04.804Z,95821.81
2018-11-07T06:34:33.312Z,95823.09
2018-11-07T06:37:01.851Z,95827.05
2018-11-07T06:39:30.379Z,95826.80
2018-11-07T06:41:58.870Z,95823.42
2018-11-07T06:44:27.418Z,95825.78
2018-11-07T06:46:55.877Z,95825.19
2018-11-07T06:49:24.407Z,95828.90
2018-11-07T06:52:02.554Z,95818.98
2018-11-07T06:54:31.074Z,95838.75
2018-11-07T06:56:59.594Z,95838.86
2018-11-07T06:59:28.101Z,95835.50
2018-11-07T07:01:57.485Z,95836.22
2018-11-07T07:04:25.979Z,95833.42
2018-11-07T07:06:54.467Z,95837.38
2018-11-07T07:09:22.967Z,95839.83
2018-11-07T07:11:51.463Z,95841.48
2018-11-07T07:14:19.961Z,95838.71
2018-11-07T07:16:48.496Z,95836.95
2018-11-07T07:19:17.079Z,95838.32
2018-11-07T07:21:45.590Z,95841.81
2018-11-07T07:24:14.134Z,95845.08
2018-11-07T07:26:42.659Z,95845.53
2018-11-07T07:29:11.250Z,95846.94
2018-11-07T07:31:39.793Z,95845.31
2018-11-07T07:34:08.426Z,95840.91
2018-11-07T07:36:36.918Z,95845.10
2018-11-07T07:39:08.169Z,95839.19
2018-11-07T07:41:37.169Z,95843.72
2018-11-07T07:44:06.577Z,95841.03
2018-11-07T07:46:57.029Z,95844.43
2018-11-07T07:49:25.640Z,95841.99
2018-11-07T07:51:54.086Z,95845.59
2018-11-07T07:54:22.592Z,95840.27
2018-11-07T07:56:51.118Z,95838.17
2018-11-07T07:59:19.607Z,95836.66
2018-11-07T08:01:48.146Z,95840.53
2018-11-07T08:04:17.014Z,95839.80
2018-11-07T08:06:45.542Z,95841.08
2018-11-07T08:09:14.481Z,95831.25
2018-11-07T08:11:42.991Z,95831.30
2018-11-07T08:14:11.475Z,95837.17
2018-11-07T08:16:39.986Z,95833.78
2018-11-07T08:19:09.522Z,95833.00
2018-11-07T08:21:38.049Z,95831.37
2018-11-07T08:24:06.567Z,95838.36
2018-11-07T08:26:35.522Z,95832.05
2018-11-07T08:29:05.203Z,95836.61
2018-11-07T08:31:33.913Z,95833.30
2018-11-07T08:34:03.482Z,95836.11
2018-11-07T08:36:32.122Z,95824.90
2018-11-07T08:39:00.690Z,95826.76
2018-11-07T08:41:29.235Z,95823.73
2018-11-07T08:43:57.738Z,95822.46
2018-11-07T08:46:26.271Z,95827.85
2018-11-07T08:48:54.775Z,95825.00
2018-11-07T08:51:23.291Z,95825.70
2018-11-07T08:53:51.815Z,95826.81
2018-11-07T08:56:20.651Z,95831.49
2018-11-07T08:58:49.220Z,95829.95
2018-11-07T09:01:17.754Z,95828.33
2018-11-07T09:03:46.247Z,95824.22
2018-11-07T09:06:15.242Z,95821.48
2018-11-07T09:08:43.818Z,95825.70
2018-11-07T09:11:12.609Z,95825.64
2018-11-07T09:13:41.102Z,95825.86
2018-11-07T09:16:09.590Z,95815.61
2018-11-07T09:18:38.126Z,95814.52
2018-11-07T09:21:06.629Z,95817.28
2018-11-07T09:23:35.150Z,95813.78
2018-11-07T09:26:03.840Z,95821.25
2018-11-07T09:28:32.351Z,95813.07
2018-11-07T09:31:00.875Z,95807.74
2018-11-07T09:33:29.372Z,95811.45
2018-11-07T09:35:57.867Z,95813.69
2018-11-07T09:38:26.371Z,95807.08
2018-11-07T09:40:54.875Z,95810.13
2018-11-07T09:43:23.397Z,95804.23
2018-11-07T09:45:51.891Z,95805.86
2018-11-07T09:48:20.528Z,95810.67
2018-11-07T09:50:48.962Z,95804.96
2018-11-07T09:53:17.510Z,95798.08
2018-11-07T09:55:46.087Z,95798.88
2018-11-07T09:58:14.635Z,95799.59
2018-11-07T10:00:43.210Z,95789.30
2018-11-07T10:03:11.715Z,95783.05
2018-11-07T10:05:40.276Z,95778.50
2018-11-07T10:08:08.764Z,95782.52
2018-11-07T10:10:37.288Z,95780.88
2018-11-07T10:13:05.867Z,95764.91
2018-11-07T10:15:34.431Z,95763.37
2018-11-07T10:18:03.136Z,95765.03
2018-11-07T10:20:31.642Z,95752.95
2018-11-07T10:23:00.156Z,95751.88
2018-11-07T10:25:28.714Z,95746.70
2018-11-07T10:27:57.621Z,95753.91
2018-11-07T10:30:25.872Z,95750.50
2018-11-07T10:32:54.343Z,95746.09
2018-11-07T10:35:22.864Z,95745.70
2018-11-07T10:37:51.439Z,95746.91
2018-11-07T10:40:21.602Z,95743.13
2018-11-07T10:42:50.149Z,95737.75
2018-11-07T10:45:18.711Z,95742.11
2018-11-07T10:47:47.989Z,95743.03
2018-11-07T10:50:17.491Z,95739.05
2018-11-07T10:52:46.484Z,95743.15
2018-11-07T10:55:15.820Z,95739.11
2018-11-07T10:57:44.394Z,95731.64
2018-11-07T11:00:19.496Z,95734.02
2018-11-07T11:02:52.997Z,95732.89
2018-11-07T11:05:22.395Z,95728.84
2018-11-07T11:07:51.023Z,95724.68
2018-11-07T11:10:19.539Z,95724.09
2018-11-07T11:12:48.166Z,95717.72
2018-11-07T11:15:16.675Z,95713.45
2018-11-07T11:17:45.178Z,95723.88
2018-11-07T11:20:14.571Z,95724.35
2018-11-07T11:22:43.192Z,95720.95
2018-11-07T11:25:11.927Z,95725.05
2018-11-07T11:27:40.448Z,95719.57
2018-11-07T11:30:09.862Z,95723.71
2018-11-07T11:32:38.621Z,95722.28
2018-11-07T11:35:08.244Z,95718.80
2018-11-07T11:37:37.078Z,95718.86
2018-11-07T11:40:07.143Z,95714.72
2018-11-07T11:42:35.668Z,95717.72
2018-11-07T11:45:04.234Z,95713.23
2018-11-07T11:47:32.763Z,95710.55
2018-11-07T11:50:01.632Z,95709.32
2018-11-07T11:52:30.147Z,95711.75
2018-11-07T11:54:58.649Z,95710.70
2018-11-07T11:57:27.236Z,95710.51
2018-11-07T11:59:56.079Z,95708.42
2018-11-07T12:02:24.367Z,95708.62
2018-11-07T12:04:52.851Z,95696.95
2018-11-07T12:07:21.365Z,95696.02
2018-11-07T12:09:50.303Z,95695.45
2018-11-07T12:15:11.188Z,95691.62
2018-11-07T12:17:39.755Z,95686.05
2018-11-07T12:20:08.653Z,95693.30
2018-11-07T12:22:37.158Z,95686.87
2018-11-07T12:25:07.177Z,95688.22
2018-11-07T12:27:35.703Z,95691.45
2018-11-07T12:30:04.855Z,95693.44
2018-11-07T12:32:33.372Z,95687.61
2018-11-07T12:35:01.919Z,95693.56
2018-11-07T12:37:30.447Z,95699.42
2018-11-07T12:39:58.984Z,95700.58
2018-11-07T12:42:27.583Z,95694.78
2018-11-07T12:44:56.111Z,95691.05
2018-11-07T12:47:24.686Z,95698.29
2018-11-07T12:49:53.328Z,95695.62
2018-11-07T12:52:21.773Z,95695.16
2018-11-07T12:54:50.286Z,95694.25
2018-11-07T12:57:18.943Z,95696.70
2018-11-07T12:59:47.358Z,95701.84
2018-11-07T13:02:15.894Z,95698.48
2018-11-07T13:04:44.486Z,95698.12
2018-11-07T13:07:12.950Z,95699.98
2018-11-07T13:09:41.811Z,95699.83
2018-11-07T13:12:10.337Z,95694.97
2018-11-07T13:14:38.983Z,95705.44
2018-11-07T13:17:07.651Z,95705.66
2018-11-07T13:19:36.168Z,95705.59
2018-11-07T13:22:05.047Z,95701.98
2018-11-07T13:24:33.619Z,95702.25
2018-11-07T13:27:02.220Z,95707.03
2018-11-07T13:29:30.754Z,95706.37
2018-11-07T13:31:59.291Z,95716.09
2018-11-07T13:34:27.860Z,95710.15
2018-11-07T13:36:56.459Z,95707.30
2018-11-07T13:39:24.858Z,95716.87
2018-11-07T13:41:53.355Z,95713.56
2018-11-07T13:44:21.896Z,95718.34
2018-11-07T13:46:50.460Z,95716.34
2018-11-07T13:49:18.955Z,95717.76
2018-11-07T13:51:47.453Z,95722.28
2018-11-07T13:54:16.399Z,95712.52
2018-11-07T13:56:44.923Z,95714.06
2018-11-07T13:59:13.523Z,95723.55
2018-11-07T14:01:41.996Z,95725.12
2018-11-07T14:04:10.492Z,95719.84
2018-11-07T14:06:39.031Z,95724.22
2018-11-07T14:09:10.190Z,95723.77
2018-11-07T14:11:39.078Z,95727.24
2018-11-07T14:14:08.690Z,95727.42
2018-11-07T14:16:37.498Z,95730.86
2018-11-07T14:19:07.840Z,95728.45
2018-11-07T14:21:36.465Z,95727.17
2018-11-07T14:24:06.712Z,95726.80
2018-11-07T14:26:35.379Z,95729.41
2018-11-07T14:29:05.883Z,95729.31
2018-11-07T14:31:34.455Z,95734.17
2018-11-07T14:34:05.827Z,95734.12
2018-11-07T14:36:34.391Z,95732.63
2018-11-07T14:39:04.310Z,95733.72
2018-11-07T14:41:32.802Z,95740.04
2018-11-07T14:44:01.497Z,95744.53
2018-11-07T14:46:30.087Z,95748.84
2018-11-07T14:48:58.591Z,95744.59
2018-11-07T14:51:27.111Z,95742.84
2018-11-07T14:53:55.676Z,95741.89
2018-11-07T14:56:24.255Z,95747.48
2018-11-07T14:58:53.179Z,95746.84
2018-11-07T15:01:21.729Z,95752.38
2018-11-07T15:03:50.231Z,95750.63
2018-11-07T15:06:18.724Z,95752.44
2018-11-07T15:08:47.278Z,95751.52
2018-11-07T15:11:15.763Z,95756.23
2018-11-07T15:13:44.295Z,95756.91
2018-11-07T15:16:12.791Z,95756.14
2018-11-07T15:18:41.301Z,95762.94
2018-11-07T15:21:09.854Z,95760.84
2018-11-07T15:23:38.379Z,95762.61
2018-11-07T15:26:06.875Z,95763.44
2018-11-07T15:28:35.444Z,95758.08
2018-11-07T15:31:04.013Z,95769.09
2018-11-07T15:33:32.691Z,95768.92
2018-11-07T15:36:01.295Z,95769.40
2018-11-07T15:38:29.771Z,95767.78
2018-11-07T15:40:58.303Z,95772.45
2018-11-07T15:43:27.026Z,95781.81
2018-11-07T15:45:55.475Z,95780.84
2018-11-07T15:48:23.975Z,95781.61
2018-11-07T15:50:57.615Z,95777.06
2018-11-07T15:53:26.101Z,95788.73
2018-11-07T15:55:54.616Z,95790.33
2018-11-07T15:58:23.171Z,95791.62
2018-11-07T16:00:51.676Z,95789.84
2018-11-07T16:03:25.435Z,95793.22
2018-11-07T16:05:53.931Z,95790.82
2018-11-07T16:08:22.507Z,95787.11
2018-11-07T16:10:51.014Z,95794.03
2018-11-07T16:13:19.574Z,95791.56
2018-11-07T16:15:48.031Z,95793.53
2018-11-07T16:18:16.912Z,95796.11
2018-11-07T16:20:45.452Z,95801.23
2018-11-07T16:23:13.992Z,95793.64
2018-11-07T16:25:42.444Z,95803.98
2018-11-07T16:28:10.946Z,95807.99
2018-11-07T16:30:39.490Z,95809.76
2018-11-07T16:33:08.036Z,95806.70
2018-11-07T16:35:36.590Z,95814.27
2018-11-07T16:38:05.253Z,95813.12
2018-11-07T16:40:33.760Z,95816.97
2018-11-07T16:43:02.412Z,95820.50
2018-11-07T16:45:30.914Z,95816.31
2018-11-07T16:47:59.451Z,95825.67
2018-11-07T16:50:27.972Z,95829.06
2018-11-07T16:52:56.463Z,95824.22
2018-11-07T16:55:24.983Z,95825.03
2018-11-07T16:57:53.498Z,95822.92
2018-11-07T17:00:22.170Z,95829.48
2018-11-07T17:02:50.964Z,95833.62
2018-11-07T17:05:19.982Z,95836.35
2018-11-07T17:07:48.877Z,95833.26
2018-11-07T17:10:17.771Z,95838.38
2018-11-07T17:12:46.269Z,95841.47
2018-11-07T17:15:14.813Z,95841.27
2018-11-07T17:17:43.436Z,95843.95
2018-11-07T17:20:13.239Z,95847.49
2018-11-07T17:22:42.138Z,95848.97
2018-11-07T17:25:13.702Z,95850.45
2018-11-07T17:27:43.011Z,95852.88
2018-11-07T17:30:12.795Z,95852.87
2018-11-07T17:32:41.319Z,95853.86
2018-11-07T17:35:12.044Z,95858.38
2018-11-07T17:37:40.853Z,95855.22
2018-11-07T17:40:12.898Z,95857.04
2018-11-07T17:42:41.410Z,95854.14
2018-11-07T17:45:11.923Z,95856.98
2018-11-07T17:47:41.130Z,95859.80
2018-11-07T17:50:10.879Z,95857.34
2018-11-07T17:52:39.927Z,95864.68
2018-11-07T17:55:09.235Z,95860.55
2018-11-07T17:57:37.752Z,95866.19
2018-11-07T18:00:08.322Z,95865.97
2018-11-07T18:02:36.830Z,95867.98
2018-11-07T18:05:05.525Z,95875.56
2018-11-07T18:07:34.083Z,95872.09
2018-11-07T18:10:02.628Z,95875.78
2018-11-07T18:12:31.159Z,95875.78
2018-11-07T18:14:59.742Z,95875.56
2018-11-07T18:17:28.398Z,95873.42
2018-11-07T18:19:56.906Z,95878.39
2018-11-07T18:22:25.436Z,95879.52
2018-11-07T18:24:53.946Z,95873.70
2018-11-07T18:27:22.895Z,95882.01
2018-11-07T18:29:51.343Z,95880.66
2018-11-07T18:32:19.858Z,95882.37
2018-11-07T18:34:48.338Z,95888.19
2018-11-07T18:37:16.875Z,95885.54
2018-11-07T18:39:45.427Z,95879.38
2018-11-07T18:42:14.037Z,95881.69
2018-11-07T18:44:42.620Z,95888.93
2018-11-07T18:47:11.861Z,95894.35
2018-11-07T18:49:40.374Z,95888.48
2018-11-07T18:52:09.029Z,95892.62
2018-11-07T18:56:47.555Z,95894.65
2018-11-07T18:59:16.087Z,95898.50
2018-11-07T19:01:45.543Z,95903.88
2018-11-07T19:04:14.343Z,95900.98
2018-11-07T19:07:45.485Z,95899.08
2018-11-07T19:10:17.919Z,95901.13
2018-11-07T19:12:47.994Z,95905.50
2018-11-07T19:15:18.314Z,95903.37
2018-11-07T19:17:50.783Z,95903.06
2018-11-07T19:20:21.805Z,95903.34
2018-11-07T19:22:51.991Z,95907.51
2018-11-07T19:25:22.391Z,95906.22
2018-11-07T19:27:52.853Z,95906.83
2018-11-07T19:30:23.254Z,95909.44
2018-11-07T19:32:54.023Z,95910.53
2018-11-07T19:35:23.834Z,95906.78
2018-11-07T19:37:53.833Z,95917.81
2018-11-07T19:40:26.378Z,95921.97
2018-11-07T19:42:56.044Z,95920.33
2018-11-07T19:45:26.815Z,95922.02
2018-11-07T19:47:57.446Z,95922.45
2018-11-07T19:50:27.934Z,95926.77
2018-11-07T19:52:58.993Z,95926.53
2018-11-07T19:55:28.913Z,95934.76
2018-11-07T19:58:00.667Z,95933.22
2018-11-07T20:00:30.389Z,95933.25
2018-11-07T20:03:01.360Z,95925.45
2018-11-07T20:05:33.857Z,95930.69
2018-11-07T20:08:05.275Z,95929.37
2018-11-07T20:10:37.099Z,95933.73
2018-11-07T20:13:09.203Z,95937.25
2018-11-07T20:15:40.252Z,95937.45
2018-11-07T20:18:10.129Z,95937.91
2018-11-07T20:20:40.044Z,95943.01
2018-11-07T20:23:11.010Z,95943.73
2018-11-07T20:25:41.075Z,95943.10
2018-11-07T20:28:12.241Z,95947.21
2018-11-07T20:30:42.347Z,95950.93
2018-11-07T20:33:18.887Z,95952.34
2018-11-07T20:35:52.329Z,95948.23
2018-11-07T20:38:22.891Z,95949.64
2018-11-07T20:40:56.120Z,95955.98
2018-11-07T20:43:27.320Z,95963.96
2018-11-07T20:45:57.325Z,95964.67
2018-11-07T20:48:29.074Z,95968.16
2018-11-07T20:51:04.122Z,95970.38
2018-11-07T20:53:33.541Z,95965.59
2018-11-07T20:56:06.398Z,95968.42
2018-11-07T20:58:37.166Z,95965.86
2018-11-07T21:01:09.357Z,95969.76
2018-11-07T21:03:40.244Z,95970.78
2018-11-07T21:06:10.182Z,95976.86
2018-11-07T21:08:40.102Z,95970.20
2018-11-07T21:11:11.158Z,95976.75
2018-11-07T21:13:43.202Z,95975.72
2018-11-07T21:16:13.354Z,95973.83
2018-11-07T21:18:43.251Z,95979.08
2018-11-07T21:21:13.179Z,95978.17
2018-11-07T21:23:43.314Z,95979.34
2018-11-07T21:26:15.114Z,95975.88
2018-11-07T21:28:48.479Z,95988.94
2018-11-07T21:31:19.175Z,95979.48
2018-11-07T21:33:52.328Z,95983.33
2018-11-07T21:36:23.235Z,95985.17
2018-11-07T21:38:57.033Z,95982.62
2018-11-07T21:41:33.134Z,95987.78
2018-11-07T21:44:07.782Z,95986.72
2018-11-07T21:46:37.496Z,95986.72
2018-11-07T21:49:07.721Z,95985.44
2018-11-07T21:51:37.502Z,95988.45
2018-11-07T21:54:08.102Z,95990.93
2018-11-07T21:56:38.864Z,95987.80
2018-11-07T21:59:08.950Z,95989.66
2018-11-07T22:01:40.365Z,95992.92
2018-11-07T22:04:10.287Z,95994.09
2018-11-07T22:06:40.504Z,95995.16
2018-11-07T22:09:12.258Z,95994.70
2018-11-07T22:11:41.975Z,95992.73
2018-11-07T22:14:11.675Z,95999.13
2018-11-07T22:16:45.349Z,96009.25
2018-11-07T22:19:19.326Z,96009.63
2018-11-07T22:21:50.547Z,96008.55
2018-11-07T22:24:20.681Z,96008.55
2018-11-07T22:26:50.547Z,96013.67
2018-11-07T22:29:21.642Z,96016.03
2018-11-07T22:31:53.036Z,96012.89
2018-11-07T22:34:23.716Z,96015.08
2018-11-07T22:36:53.642Z,96019.99
2018-11-07T22:39:23.658Z,96018.02
2018-11-07T22:41:54.734Z,96017.89
2018-11-07T22:44:24.626Z,96019.17
2018-11-07T22:46:56.053Z,96025.81
2018-11-07T22:49:25.597Z,96023.34
2018-11-07T22:51:56.699Z,96031.02
2018-11-07T22:54:27.782Z,96030.45
2018-11-07T22:56:59.899Z,96029.87
2018-11-07T22:59:31.835Z,96034.08
2018-11-07T23:02:03.489Z,96037.34
2018-11-07T23:04:37.483Z,96036.41
2018-11-07T23:07:07.755Z,96038.75
2018-11-07T23:09:37.643Z,96028.76
2018-11-07T23:12:08.785Z,96031.41
2018-11-07T23:14:40.769Z,96035.15
2018-11-07T23:17:11.014Z,96040.03
2018-11-07T23:19:40.788Z,96042.83
2018-11-07T23:22:11.822Z,96045.97
2018-11-07T23:24:42.591Z,96048.06
2018-11-07T23:27:12.852Z,96053.63
2018-11-07T23:29:43.294Z,96047.59
2018-11-07T23:32:13.659Z,96051.08
2018-11-07T23:34:46.763Z,96054.44
2018-11-07T23:37:17.677Z,96046.77
2018-11-07T23:39:50.898Z,96046.20
2018-11-07T23:42:20.735Z,96052.72
2018-11-07T23:44:57.671Z,96048.51
2018-11-07T23:47:27.979Z,96053.98
2018-11-07T23:49:58.888Z,96055.13
2018-11-07T23:52:34.137Z,96060.36
2018-11-07T23:55:06.203Z,96067.23
2018-11-07T23:57:38.019Z,96060.37
